John C. Munro Hamilton International Airport
CYHM : now visible

Airfield :











YOU CAN JOIN US ON...

 
LOGIN :

Register | Disclaimer

   EN    FR    IT 

 









Legend :    VFR   Marginal VFR   IFR   Intensive IFR   Very Intensive IFR
Visi :
Ceiling :
>= 8 km
>= 3000ft
5 to 8 km
1000 to 3000 ft
1500m to 5 km
500 to 1000 ft
800 to 1500m
200 to 500 ft
< 800m
< 200 ft
Symbols :   Thunderstorms  Fog  Heavy snow  Heavy precipitations  Wind > 20 kt







- Airport Elevation : 780 ft
- IATA code : YHM


CYHM - John C. Munro Hamilton International

CURRENT METAR :
  • 221200Z 18004KT 15SM FEW030 BKN110 BKN120 05/05 A3024 RMK SC2AC3AC2 SLP249

EXPIRED METARs :
  • 221100Z 20003KT 8SM FEW035 BKN110 BKN130 05/05 A3023 RMK SC2AC4AC1 SLP243
  • 221000Z 17005KT 15SM BKN110 BKN120 05/05 A3021 RMK AC5AC2 SLP236

TAF TAF CYHM
Valid from the 22 at 12:00 until the 23 at 12:00 UTC


221139Z 2212/2312 VRB03KT P6SM BKN120
BECMG 2213/2215 08005KT
FM221700 05008KT P6SM SCT100
PROB30 2304/2312 21/2SM BR RMK NXT FCST BY 221800Z
CZYZ FIR / North America



MET'MAP, your aeronautical weather chart ! - Copyright ORBIFLY December 2007 - Disclaimer

ORBIFLY MET'MAP TEAM :

Programming & Development : Alexandra Zaïnal
Concept & Development : Baudouin d'Aumeries
Co-Development & Prog : Marc-Olivier Méhu
Technical & hardware support : Manuel Goepfert

Contact : metmap@orbifly.com




SOURCES & CREDITS :

   NOAA       Earth
Advisory